createdAt,value
2022-10-16T00:00:47.582Z,28.88
2022-10-16T00:03:32.448Z,26.08
2022-10-16T00:06:20.690Z,22.40
2022-10-16T00:09:07.154Z,19.02
2022-10-16T00:11:52.415Z,24.83
2022-10-16T00:14:37.440Z,22.48
2022-10-16T00:17:22.458Z,29.60
2022-10-16T00:20:07.979Z,20.60
2022-10-16T00:22:52.933Z,26.15
2022-10-16T00:25:37.798Z,22.33
2022-10-16T00:28:22.886Z,22.98
2022-10-16T00:31:10.474Z,26.15
2022-10-16T00:33:55.870Z,20.50
2022-10-16T00:36:41.098Z,18.25
2022-10-16T00:39:26.655Z,32.75
2022-10-16T00:42:19.790Z,28.35
2022-10-16T00:45:05.997Z,23.75
2022-10-16T00:47:55.069Z,27.88
2022-10-16T00:50:42.309Z,21.40
2022-10-16T00:53:28.644Z,25.98
2022-10-16T00:56:13.850Z,23.85
2022-10-16T00:59:00.529Z,25.17
2022-10-16T01:01:46.174Z,27.98
2022-10-16T01:04:39.605Z,21.60
2022-10-16T01:07:42.198Z,24.00
2022-10-16T01:10:28.932Z,24.90
2022-10-16T01:13:22.513Z,21.08
2022-10-16T01:16:30.694Z,25.98
2022-10-16T01:19:53.873Z,24.52
2022-10-16T01:23:00.573Z,17.50
2022-10-16T01:26:10.482Z,27.48
2022-10-16T01:31:57.810Z,27.08
2022-10-16T01:34:50.575Z,25.88
2022-10-16T01:37:45.701Z,26.38
2022-10-16T01:40:34.354Z,28.90
2022-10-16T01:43:29.490Z,21.58
2022-10-16T01:46:18.487Z,28.88
2022-10-16T01:49:05.005Z,32.30
2022-10-16T01:51:55.262Z,17.83
2022-10-16T01:54:43.305Z,31.17
2022-10-16T01:57:30.877Z,28.70
2022-10-16T02:00:18.613Z,24.58
2022-10-16T02:03:04.980Z,25.42
2022-10-16T02:05:56.658Z,27.65
2022-10-16T02:08:44.955Z,26.88
2022-10-16T02:11:30.719Z,27.30
2022-10-16T02:14:16.154Z,30.98
2022-10-16T02:17:01.287Z,19.08
2022-10-16T02:19:48.671Z,24.55
2022-10-16T02:22:44.765Z,28.48
2022-10-16T02:25:38.364Z,24.13
2022-10-16T02:28:29.370Z,23.67
2022-10-16T02:31:19.197Z,31.83
2022-10-16T02:34:06.754Z,22.75
2022-10-16T02:36:52.779Z,23.95
2022-10-16T02:39:39.694Z,24.98
2022-10-16T02:42:39.406Z,23.90
2022-10-16T02:45:25.034Z,25.65
2022-10-16T02:48:10.505Z,23.27
2022-10-16T02:50:55.593Z,18.92
2022-10-16T02:53:40.751Z,17.83
2022-10-16T02:56:26.002Z,24.10
2022-10-16T02:59:11.207Z,24.92
2022-10-16T03:01:56.186Z,17.85
2022-10-16T03:04:41.369Z,16.20
2022-10-16T03:07:26.951Z,12.50
2022-10-16T03:10:12.289Z,14.15
2022-10-16T03:12:57.582Z,19.73
2022-10-16T03:15:42.802Z,12.82
2022-10-16T03:18:28.149Z,20.42
2022-10-16T03:21:13.221Z,20.10
2022-10-16T03:23:58.227Z,17.05
2022-10-16T03:26:43.261Z,19.33
2022-10-16T03:29:30.268Z,16.85
2022-10-16T03:32:15.274Z,12.15
2022-10-16T03:35:00.269Z,19.00
2022-10-16T03:37:45.200Z,20.48
2022-10-16T03:40:33.090Z,14.05
2022-10-16T03:43:18.056Z,12.02
2022-10-16T03:46:03.147Z,13.20
2022-10-16T03:48:48.487Z,19.27
2022-10-16T03:51:33.729Z,15.77
2022-10-16T03:54:18.806Z,14.38
2022-10-16T03:57:04.069Z,10.23
2022-10-16T03:59:49.096Z,16.08
2022-10-16T04:02:33.972Z,18.27
2022-10-16T04:05:19.153Z,18.25
2022-10-16T04:08:04.318Z,15.43
2022-10-16T04:10:49.708Z,11.45
2022-10-16T04:13:34.880Z,11.13
2022-10-16T04:16:19.839Z,17.23
2022-10-16T04:19:05.118Z,13.07
2022-10-16T04:21:50.227Z,18.80
2022-10-16T04:24:35.267Z,24.00
2022-10-16T04:27:20.542Z,12.20
2022-10-16T04:30:06.510Z,14.45
2022-10-16T04:32:52.685Z,19.15
2022-10-16T04:35:37.961Z,17.25
2022-10-16T04:38:23.350Z,18.85
2022-10-16T04:41:08.863Z,13.02
2022-10-16T04:43:53.997Z,12.05
2022-10-16T04:46:39.008Z,20.38
2022-10-16T04:49:24.107Z,13.55
2022-10-16T04:52:10.582Z,16.45
2022-10-16T04:54:57.297Z,17.30
2022-10-16T04:57:42.216Z,16.33
2022-10-16T05:00:27.513Z,18.42
2022-10-16T05:03:13.686Z,12.55
2022-10-16T05:05:59.235Z,14.77
2022-10-16T05:08:44.482Z,13.77
2022-10-16T05:11:29.446Z,18.63
2022-10-16T05:14:14.352Z,25.23
2022-10-16T05:17:00.706Z,23.25
2022-10-16T05:19:45.662Z,18.55
2022-10-16T05:22:31.023Z,22.40
2022-10-16T05:25:16.371Z,16.38
2022-10-16T05:28:01.699Z,16.60
2022-10-16T05:30:46.507Z,18.40
2022-10-16T05:33:31.535Z,18.10
2022-10-16T05:36:16.809Z,20.33
2022-10-16T05:39:02.280Z,22.45
2022-10-16T05:41:47.464Z,27.08
2022-10-16T05:47:21.838Z,19.90
2022-10-16T05:50:07.000Z,17.67
2022-10-16T05:52:51.945Z,24.63
2022-10-16T05:55:36.788Z,15.15
2022-10-16T05:58:23.307Z,21.45
2022-10-16T06:01:13.266Z,18.35
2022-10-16T06:03:58.659Z,20.90
2022-10-16T06:06:43.702Z,18.60
2022-10-16T06:09:28.564Z,20.67
2022-10-16T06:12:13.886Z,21.90
2022-10-16T06:14:58.832Z,23.15
2022-10-16T06:17:43.669Z,22.77
2022-10-16T06:20:28.712Z,19.20
2022-10-16T06:23:13.692Z,21.00
2022-10-16T06:26:15.721Z,18.52
2022-10-16T06:29:01.045Z,15.50
2022-10-16T06:31:46.236Z,15.00
2022-10-16T06:34:31.130Z,15.63
2022-10-16T06:37:15.895Z,18.50
2022-10-16T06:40:01.198Z,18.17
2022-10-16T06:42:46.198Z,21.13
2022-10-16T06:45:31.306Z,18.90
2022-10-16T06:48:16.308Z,18.27
2022-10-16T06:51:07.436Z,20.50
2022-10-16T06:54:03.984Z,18.75
2022-10-16T06:56:49.606Z,13.35
2022-10-16T06:59:34.682Z,20.13
2022-10-16T07:02:19.773Z,21.65
2022-10-16T07:05:05.143Z,17.92
2022-10-16T07:07:49.991Z,21.80
2022-10-16T07:10:35.462Z,28.80
2022-10-16T07:13:20.646Z,22.33
2022-10-16T07:16:16.885Z,18.05
2022-10-16T07:19:03.566Z,20.63
2022-10-16T07:21:48.493Z,16.98
2022-10-16T07:24:33.790Z,23.13
2022-10-16T07:27:19.283Z,16.95
2022-10-16T07:30:08.355Z,23.67
2022-10-16T07:35:39.361Z,21.65
2022-10-16T07:38:24.580Z,25.98
2022-10-16T07:41:15.838Z,27.75
2022-10-16T07:44:01.565Z,26.73
2022-10-16T07:46:47.024Z,19.85
2022-10-16T07:49:32.159Z,13.18
2022-10-16T07:52:17.421Z,20.23
2022-10-16T07:55:02.293Z,19.38
2022-10-16T07:57:47.280Z,14.95
2022-10-16T08:00:32.925Z,21.73
2022-10-16T08:03:18.209Z,21.42
2022-10-16T08:06:04.351Z,19.70
2022-10-16T08:08:49.997Z,22.25
2022-10-16T08:11:35.252Z,20.95
2022-10-16T08:14:20.351Z,17.33
2022-10-16T08:17:05.653Z,21.08
2022-10-16T08:19:50.904Z,29.50
2022-10-16T08:22:36.094Z,23.83
2022-10-16T08:25:22.482Z,16.92
2022-10-16T08:28:09.626Z,18.98
2022-10-16T08:30:54.746Z,24.70
2022-10-16T08:33:41.816Z,19.05
2022-10-16T08:36:27.085Z,18.42
2022-10-16T08:39:12.214Z,23.27
2022-10-16T08:42:22.250Z,18.80
2022-10-16T08:48:42.319Z,18.40
2022-10-16T08:51:33.448Z,19.05
2022-10-16T08:54:41.460Z,17.55
2022-10-16T08:57:28.037Z,22.58
2022-10-16T09:00:14.736Z,18.40
2022-10-16T09:03:22.433Z,23.60
2022-10-16T09:06:30.821Z,18.33
2022-10-16T09:09:44.360Z,28.25
2022-10-16T09:12:34.959Z,19.52
2022-10-16T09:15:48.330Z,19.17
2022-10-16T09:18:39.710Z,25.83
2022-10-16T09:21:29.968Z,19.45
2022-10-16T09:24:18.302Z,19.23
2022-10-16T09:27:03.457Z,20.52
2022-10-16T09:29:48.719Z,26.50
2022-10-16T09:32:34.522Z,20.98
2022-10-16T09:35:32.256Z,17.60
2022-10-16T09:38:32.333Z,15.40
2022-10-16T09:41:23.140Z,27.63
2022-10-16T09:44:22.377Z,23.88
2022-10-16T09:47:21.323Z,28.40
2022-10-16T09:50:24.228Z,19.35
2022-10-16T09:53:14.433Z,21.27
2022-10-16T09:55:59.647Z,19.85
2022-10-16T09:58:51.953Z,19.25
2022-10-16T10:01:41.424Z,15.48
2022-10-16T10:04:29.427Z,23.20
2022-10-16T10:07:36.607Z,23.10
2022-10-16T10:10:28.008Z,20.55
2022-10-16T10:13:25.322Z,17.60
2022-10-16T10:16:10.641Z,18.35
2022-10-16T10:19:00.450Z,24.38
2022-10-16T10:21:46.051Z,21.15
2022-10-16T10:24:31.205Z,18.38
2022-10-16T10:27:18.040Z,18.58
2022-10-16T10:33:22.679Z,21.75
2022-10-16T10:36:33.469Z,18.13
2022-10-16T10:39:28.754Z,13.52
2022-10-16T10:42:23.066Z,20.35
2022-10-16T10:45:19.093Z,21.73
2022-10-16T10:48:19.214Z,19.50
2022-10-16T10:51:12.853Z,23.05
2022-10-16T10:54:12.155Z,27.80
2022-10-16T10:57:07.294Z,22.20
2022-10-16T11:00:04.001Z,15.77
2022-10-16T11:03:06.774Z,25.00
2022-10-16T11:06:16.019Z,20.38
2022-10-16T11:09:03.591Z,20.30
2022-10-16T11:11:59.157Z,21.98
2022-10-16T11:14:59.879Z,18.40
2022-10-16T11:18:18.089Z,23.83
2022-10-16T11:21:13.441Z,17.98
2022-10-16T11:24:08.034Z,15.90
2022-10-16T11:26:55.444Z,22.23
2022-10-16T11:29:47.792Z,25.33
2022-10-16T11:32:43.055Z,24.77
2022-10-16T11:36:20.780Z,24.45
2022-10-16T11:39:22.708Z,11.00
2022-10-16T11:42:12.545Z,12.18
2022-10-16T11:45:24.217Z,20.40
2022-10-16T11:48:12.193Z,19.20
2022-10-16T11:51:04.588Z,13.90
2022-10-16T11:54:11.658Z,12.00
2022-10-16T11:57:02.525Z,14.98
2022-10-16T11:59:56.433Z,17.60
2022-10-16T12:03:11.703Z,12.15
2022-10-16T12:06:04.002Z,16.42
2022-10-16T12:08:49.318Z,19.02
2022-10-16T12:11:38.983Z,24.40
2022-10-16T12:15:21.902Z,17.42
2022-10-16T12:18:05.492Z,16.92
2022-10-16T12:21:16.968Z,15.90
2022-10-16T12:24:05.807Z,25.17
2022-10-16T12:26:53.281Z,17.83
2022-10-16T12:29:38.643Z,19.98
2022-10-16T12:32:46.161Z,16.08
2022-10-16T12:35:35.530Z,21.35
2022-10-16T12:38:30.606Z,15.77
2022-10-16T12:41:29.841Z,21.40
2022-10-16T12:44:27.289Z,15.45
2022-10-16T12:47:31.651Z,21.67
2022-10-16T12:50:32.260Z,16.98
2022-10-16T12:53:27.974Z,24.77
2022-10-16T12:56:27.172Z,14.48
2022-10-16T12:59:33.882Z,21.08
2022-10-16T13:02:56.587Z,18.85
2022-10-16T13:05:59.080Z,18.58
2022-10-16T13:09:23.881Z,18.67
2022-10-16T13:12:35.820Z,20.48
2022-10-16T13:15:31.009Z,11.70
2022-10-16T13:18:58.102Z,16.88
2022-10-16T13:22:02.620Z,12.40
2022-10-16T13:24:59.687Z,15.63
2022-10-16T13:27:55.040Z,12.02
2022-10-16T13:30:51.600Z,19.05
2022-10-16T13:33:40.427Z,18.20
2022-10-16T13:36:28.467Z,13.20
2022-10-16T13:39:18.296Z,25.15
2022-10-16T13:42:16.460Z,16.10
2022-10-16T13:45:01.411Z,20.50
2022-10-16T13:47:46.785Z,12.90
2022-10-16T13:50:32.313Z,18.30
2022-10-16T13:53:17.299Z,23.80
2022-10-16T13:56:07.814Z,18.98
2022-10-16T13:59:07.933Z,14.48
2022-10-16T14:01:56.738Z,25.48
2022-10-16T14:04:42.627Z,20.17
2022-10-16T14:07:32.549Z,13.80
2022-10-16T14:10:24.725Z,18.75
2022-10-16T14:13:18.406Z,18.55
2022-10-16T14:16:09.011Z,12.07
2022-10-16T14:19:01.742Z,15.02
2022-10-16T14:21:46.939Z,15.75
2022-10-16T14:24:33.353Z,19.10
2022-10-16T14:27:37.981Z,21.92
2022-10-16T14:30:23.607Z,22.02
2022-10-16T14:33:23.630Z,15.40
2022-10-16T14:36:11.879Z,19.42
2022-10-16T14:39:04.223Z,18.50
2022-10-16T14:41:51.386Z,19.52
2022-10-16T14:44:36.777Z,15.27
2022-10-16T14:47:27.366Z,14.55
2022-10-16T14:50:12.279Z,11.60
2022-10-16T14:52:57.401Z,14.02
2022-10-16T14:55:43.943Z,16.60
2022-10-16T14:58:29.065Z,16.25
2022-10-16T15:01:14.696Z,8.75
2022-10-16T15:03:59.832Z,13.00
2022-10-16T15:06:45.142Z,12.68
2022-10-16T15:09:30.346Z,15.55
2022-10-16T15:12:15.433Z,12.65
2022-10-16T15:15:01.055Z,16.88
2022-10-16T15:17:45.870Z,18.65
2022-10-16T15:20:36.127Z,14.55
2022-10-16T15:23:23.104Z,11.88
2022-10-16T15:26:08.751Z,19.17
2022-10-16T15:28:54.105Z,15.18
2022-10-16T15:31:39.754Z,15.93
2022-10-16T15:34:25.066Z,14.50
2022-10-16T15:37:10.313Z,14.60
2022-10-16T15:39:55.405Z,17.58
2022-10-16T15:42:40.305Z,13.73
2022-10-16T15:45:25.248Z,14.35
2022-10-16T15:48:12.941Z,12.65
2022-10-16T15:50:57.974Z,14.23
2022-10-16T15:53:43.268Z,14.52
2022-10-16T15:56:29.923Z,19.02
2022-10-16T15:59:15.282Z,19.48
2022-10-16T16:02:00.288Z,16.25
2022-10-16T16:04:45.401Z,13.45
2022-10-16T16:07:34.309Z,20.55
2022-10-16T16:10:20.445Z,17.33
2022-10-16T16:13:05.751Z,14.43
2022-10-16T16:15:50.570Z,20.73
2022-10-16T16:18:36.109Z,13.23
2022-10-16T16:21:21.499Z,13.55
2022-10-16T16:24:09.269Z,16.23
2022-10-16T16:26:54.647Z,19.58
2022-10-16T16:29:40.593Z,18.42
2022-10-16T16:32:26.122Z,18.25
2022-10-16T16:35:11.459Z,18.60
2022-10-16T16:37:56.746Z,16.92
2022-10-16T16:40:41.954Z,11.23
2022-10-16T16:43:28.254Z,18.15
2022-10-16T16:46:13.922Z,12.77
2022-10-16T16:48:59.868Z,10.30
2022-10-16T16:51:44.944Z,13.25
2022-10-16T16:54:30.012Z,14.65
2022-10-16T16:57:15.813Z,15.32
2022-10-16T17:00:01.175Z,14.82
2022-10-16T17:02:51.996Z,16.33
2022-10-16T17:05:36.635Z,19.70
2022-10-16T17:08:21.720Z,15.10
2022-10-16T17:11:12.135Z,20.85
2022-10-16T17:13:59.151Z,17.83
2022-10-16T17:16:44.969Z,11.80
2022-10-16T17:19:30.312Z,13.75
2022-10-16T17:22:15.238Z,14.43
2022-10-16T17:25:00.339Z,16.48
2022-10-16T17:27:45.420Z,17.77
2022-10-16T17:30:30.566Z,13.75
2022-10-16T17:33:15.906Z,16.55
2022-10-16T17:36:01.164Z,23.00
2022-10-16T17:38:46.531Z,18.08
2022-10-16T17:41:32.736Z,17.15
2022-10-16T17:44:20.740Z,7.40
2022-10-16T17:47:05.620Z,15.18
2022-10-16T17:49:51.166Z,12.35
2022-10-16T17:52:36.152Z,12.80
2022-10-16T17:55:24.921Z,10.40
2022-10-16T17:58:12.441Z,10.10
2022-10-16T18:00:57.607Z,7.85
2022-10-16T18:03:43.156Z,10.15
2022-10-16T18:06:28.841Z,15.35
2022-10-16T18:09:18.104Z,10.95
2022-10-16T18:12:03.060Z,10.63
2022-10-16T18:14:48.748Z,11.38
2022-10-16T18:17:40.471Z,9.35
2022-10-16T18:20:25.613Z,8.23
2022-10-16T18:23:11.507Z,14.13
2022-10-16T18:25:57.258Z,12.35
2022-10-16T18:28:43.079Z,14.13
2022-10-16T18:31:28.713Z,9.70
2022-10-16T18:34:13.761Z,12.68
2022-10-16T18:36:59.691Z,7.38
2022-10-16T18:39:48.771Z,8.73
2022-10-16T18:42:33.780Z,10.88
2022-10-16T18:45:19.749Z,9.65
2022-10-16T18:48:05.773Z,9.57
2022-10-16T18:50:51.535Z,5.40
2022-10-16T18:53:38.247Z,14.23
2022-10-16T18:56:24.552Z,11.75
2022-10-16T18:59:10.571Z,8.55
2022-10-16T19:01:56.051Z,12.75
2022-10-16T19:04:41.214Z,10.70
2022-10-16T19:07:26.611Z,8.07
2022-10-16T19:10:12.013Z,11.25
2022-10-16T19:12:57.293Z,11.98
2022-10-16T19:15:53.189Z,15.05
2022-10-16T19:18:44.091Z,12.10
2022-10-16T19:21:30.698Z,7.68
2022-10-16T19:24:16.105Z,11.05
2022-10-16T19:27:01.118Z,7.30
2022-10-16T19:29:46.317Z,11.20
2022-10-16T19:32:32.793Z,10.00
2022-10-16T19:35:18.162Z,11.10
2022-10-16T19:38:03.239Z,12.00
2022-10-16T19:40:48.440Z,10.63
2022-10-16T19:43:33.683Z,9.05
2022-10-16T19:46:21.857Z,12.98
2022-10-16T19:49:10.694Z,12.77
2022-10-16T19:51:55.631Z,13.80
2022-10-16T19:54:40.633Z,9.90
2022-10-16T19:57:26.489Z,17.00
2022-10-16T20:00:12.599Z,12.68
2022-10-16T20:02:57.810Z,16.95
2022-10-16T20:05:57.173Z,12.45
2022-10-16T20:08:44.545Z,18.48
2022-10-16T20:11:32.364Z,8.55
2022-10-16T20:14:17.950Z,8.88
2022-10-16T20:17:03.434Z,11.43
2022-10-16T20:19:48.560Z,8.98
2022-10-16T20:22:33.474Z,9.80
2022-10-16T20:25:19.215Z,10.68
2022-10-16T20:28:05.684Z,13.10
2022-10-16T20:30:51.000Z,11.88
2022-10-16T20:33:36.698Z,17.60
2022-10-16T20:36:23.044Z,8.32
2022-10-16T20:39:08.399Z,5.57
2022-10-16T20:41:53.378Z,5.65
2022-10-16T20:44:38.346Z,5.95
2022-10-16T20:47:23.753Z,9.55
2022-10-16T20:50:09.167Z,9.93
2022-10-16T20:52:54.235Z,10.85
2022-10-16T20:55:39.321Z,7.55
2022-10-16T20:58:24.551Z,5.70
2022-10-16T21:01:12.500Z,10.07
2022-10-16T21:04:02.818Z,8.73
2022-10-16T21:06:47.879Z,5.72
2022-10-16T21:09:33.090Z,8.45
2022-10-16T21:12:18.305Z,6.93
2022-10-16T21:15:19.704Z,8.52
2022-10-16T21:18:04.695Z,5.10
2022-10-16T21:20:49.470Z,5.38
2022-10-16T21:23:34.746Z,8.02
2022-10-16T21:26:25.972Z,9.32
2022-10-16T21:29:11.964Z,5.65
2022-10-16T21:31:57.120Z,8.15
2022-10-16T21:34:42.415Z,10.18
2022-10-16T21:37:27.942Z,5.22
2022-10-16T21:40:13.715Z,8.73
2022-10-16T21:42:59.055Z,5.07
2022-10-16T21:45:44.261Z,7.30
2022-10-16T21:48:29.413Z,9.05
2022-10-16T21:51:15.315Z,15.15
2022-10-16T21:54:02.101Z,16.88
2022-10-16T21:56:47.607Z,9.10
2022-10-16T21:59:32.753Z,6.07
2022-10-16T22:02:17.951Z,15.23
2022-10-16T22:05:03.462Z,8.23
2022-10-16T22:07:48.389Z,17.90
2022-10-16T22:10:33.451Z,11.35
2022-10-16T22:13:18.378Z,13.30
2022-10-16T22:16:04.612Z,15.63
2022-10-16T22:18:52.346Z,7.90
2022-10-16T22:21:39.650Z,14.77
2022-10-16T22:24:24.794Z,8.07
2022-10-16T22:27:09.978Z,11.50
2022-10-16T22:29:55.196Z,11.10
2022-10-16T22:32:40.366Z,16.67
2022-10-16T22:35:25.558Z,11.77
2022-10-16T22:38:10.542Z,10.95
2022-10-16T22:40:55.907Z,12.30
2022-10-16T22:43:44.016Z,14.70
2022-10-16T22:46:30.692Z,14.85
2022-10-16T22:49:18.272Z,14.00
2022-10-16T22:52:03.650Z,14.80
2022-10-16T22:54:48.746Z,15.05
2022-10-16T22:57:34.054Z,14.27
2022-10-16T23:00:20.007Z,16.38
2022-10-16T23:03:05.251Z,12.40
2022-10-16T23:05:50.680Z,11.27
2022-10-16T23:08:35.905Z,11.07
2022-10-16T23:11:21.426Z,14.35
2022-10-16T23:14:06.566Z,12.45
2022-10-16T23:16:51.811Z,11.23
2022-10-16T23:19:36.998Z,15.60
2022-10-16T23:22:21.901Z,19.67
2022-10-16T23:25:08.960Z,13.60
2022-10-16T23:27:54.641Z,13.82
2022-10-16T23:30:39.884Z,12.52
2022-10-16T23:33:24.972Z,14.75
2022-10-16T23:36:15.781Z,13.40
2022-10-16T23:39:00.969Z,8.93
2022-10-16T23:41:46.106Z,20.50
2022-10-16T23:44:31.123Z,11.73
2022-10-16T23:47:16.235Z,13.60
2022-10-16T23:50:01.041Z,14.38
2022-10-16T23:52:45.983Z,11.88
2022-10-16T23:58:21.784Z,16.00
